sensor_id;sensor_type;location;lat;lon;timestamp;P1;durP1;ratioP1;P2;durP2;ratioP2
13989;SDS011;7069;52.528;13.316;2022-09-02T00:01:09;2.10;;;1.90;;
13989;SDS011;7069;52.528;13.316;2022-09-02T00:03:36;1.90;;;1.70;;
13989;SDS011;7069;52.528;13.316;2022-09-02T00:06:02;1.95;;;1.55;;
13989;SDS011;7069;52.528;13.316;2022-09-02T00:08:29;2.55;;;1.30;;
13989;SDS011;7069;52.528;13.316;2022-09-02T00:10:56;3.25;;;1.60;;
13989;SDS011;7069;52.528;13.316;2022-09-02T00:13:25;1.02;;;0.90;;
13989;SDS011;7069;52.528;13.316;2022-09-02T00:15:53;1.45;;;1.27;;
13989;SDS011;7069;52.528;13.316;2022-09-02T00:18:20;1.92;;;1.08;;
13989;SDS011;7069;52.528;13.316;2022-09-02T00:20:49;1.70;;;1.30;;
13989;SDS011;7069;52.528;13.316;2022-09-02T00:23:15;1.33;;;1.23;;
13989;SDS011;7069;52.528;13.316;2022-09-02T00:25:42;1.48;;;1.38;;
13989;SDS011;7069;52.528;13.316;2022-09-02T00:28:09;2.75;;;1.20;;
13989;SDS011;7069;52.528;13.316;2022-09-02T00:30:35;1.45;;;1.35;;
13989;SDS011;7069;52.528;13.316;2022-09-02T00:33:03;2.35;;;1.42;;
13989;SDS011;7069;52.528;13.316;2022-09-02T00:35:30;1.30;;;1.20;;
13989;SDS011;7069;52.528;13.316;2022-09-02T00:37:57;1.80;;;1.48;;
13989;SDS011;7069;52.528;13.316;2022-09-02T00:40:23;1.58;;;1.23;;
13989;SDS011;7069;52.528;13.316;2022-09-02T00:42:50;1.25;;;1.15;;
13989;SDS011;7069;52.528;13.316;2022-09-02T00:45:17;1.50;;;1.40;;
13989;SDS011;7069;52.528;13.316;2022-09-02T00:47:44;1.50;;;1.17;;
13989;SDS011;7069;52.528;13.316;2022-09-02T00:50:13;2.97;;;1.65;;
13989;SDS011;7069;52.528;13.316;2022-09-02T00:52:42;3.15;;;1.27;;
13989;SDS011;7069;52.528;13.316;2022-09-02T00:55:11;1.40;;;1.30;;
13989;SDS011;7069;52.528;13.316;2022-09-02T00:57:41;2.97;;;1.20;;
13989;SDS011;7069;52.528;13.316;2022-09-02T01:00:10;1.77;;;1.52;;
13989;SDS011;7069;52.528;13.316;2022-09-02T01:02:39;1.33;;;1.20;;
13989;SDS011;7069;52.528;13.316;2022-09-02T01:05:06;3.45;;;1.50;;
13989;SDS011;7069;52.528;13.316;2022-09-02T01:07:35;3.38;;;1.63;;
13989;SDS011;7069;52.528;13.316;2022-09-02T01:10:02;1.02;;;1.00;;
13989;SDS011;7069;52.528;13.316;2022-09-02T01:12:30;1.17;;;1.05;;
13989;SDS011;7069;52.528;13.316;2022-09-02T01:14:58;2.60;;;1.38;;
13989;SDS011;7069;52.528;13.316;2022-09-02T01:17:25;1.50;;;1.13;;
13989;SDS011;7069;52.528;13.316;2022-09-02T01:19:52;2.75;;;0.88;;
13989;SDS011;7069;52.528;13.316;2022-09-02T01:22:21;1.75;;;1.30;;
13989;SDS011;7069;52.528;13.316;2022-09-02T01:24:49;2.25;;;1.17;;
13989;SDS011;7069;52.528;13.316;2022-09-02T01:27:16;1.92;;;1.13;;
13989;SDS011;7069;52.528;13.316;2022-09-02T01:29:43;1.85;;;1.25;;
13989;SDS011;7069;52.528;13.316;2022-09-02T01:32:09;1.65;;;1.27;;
13989;SDS011;7069;52.528;13.316;2022-09-02T01:34:35;1.50;;;1.40;;
13989;SDS011;7069;52.528;13.316;2022-09-02T01:37:02;1.60;;;1.40;;
13989;SDS011;7069;52.528;13.316;2022-09-02T01:39:30;1.65;;;1.13;;
13989;SDS011;7069;52.528;13.316;2022-09-02T01:41:57;1.45;;;1.30;;
13989;SDS011;7069;52.528;13.316;2022-09-02T01:44:24;4.13;;;1.08;;
13989;SDS011;7069;52.528;13.316;2022-09-02T01:46:51;1.70;;;1.50;;
13989;SDS011;7069;52.528;13.316;2022-09-02T01:49:18;2.15;;;1.23;;
13989;SDS011;7069;52.528;13.316;2022-09-02T01:51:44;4.15;;;1.20;;
13989;SDS011;7069;52.528;13.316;2022-09-02T01:54:10;2.38;;;1.52;;
13989;SDS011;7069;52.528;13.316;2022-09-02T01:56:38;1.10;;;1.00;;
13989;SDS011;7069;52.528;13.316;2022-09-02T01:59:05;1.55;;;1.45;;
13989;SDS011;7069;52.528;13.316;2022-09-02T02:01:32;1.40;;;1.30;;
13989;SDS011;7069;52.528;13.316;2022-09-02T02:03:59;1.40;;;1.30;;
13989;SDS011;7069;52.528;13.316;2022-09-02T02:06:26;1.77;;;0.98;;
13989;SDS011;7069;52.528;13.316;2022-09-02T02:08:52;1.90;;;1.00;;
13989;SDS011;7069;52.528;13.316;2022-09-02T02:11:19;1.50;;;1.30;;
13989;SDS011;7069;52.528;13.316;2022-09-02T02:13:47;2.47;;;1.10;;
13989;SDS011;7069;52.528;13.316;2022-09-02T02:16:14;1.45;;;1.20;;
13989;SDS011;7069;52.528;13.316;2022-09-02T02:18:40;1.58;;;1.45;;
13989;SDS011;7069;52.528;13.316;2022-09-02T02:21:06;1.50;;;1.10;;
13989;SDS011;7069;52.528;13.316;2022-09-02T02:23:33;1.65;;;1.33;;
13989;SDS011;7069;52.528;13.316;2022-09-02T02:26:00;2.78;;;1.10;;
13989;SDS011;7069;52.528;13.316;2022-09-02T02:28:26;2.78;;;0.98;;
13989;SDS011;7069;52.528;13.316;2022-09-02T02:30:55;1.20;;;1.10;;
13989;SDS011;7069;52.528;13.316;2022-09-02T02:33:23;1.23;;;1.10;;
13989;SDS011;7069;52.528;13.316;2022-09-02T02:35:50;2.35;;;1.48;;
13989;SDS011;7069;52.528;13.316;2022-09-02T02:38:17;0.85;;;0.85;;
13989;SDS011;7069;52.528;13.316;2022-09-02T02:40:43;2.72;;;1.20;;
13989;SDS011;7069;52.528;13.316;2022-09-02T02:43:10;1.15;;;1.10;;
13989;SDS011;7069;52.528;13.316;2022-09-02T02:45:36;1.45;;;1.27;;
13989;SDS011;7069;52.528;13.316;2022-09-02T02:48:04;0.98;;;0.98;;
13989;SDS011;7069;52.528;13.316;2022-09-02T02:50:31;1.40;;;1.10;;
13989;SDS011;7069;52.528;13.316;2022-09-02T02:52:57;4.95;;;1.27;;
13989;SDS011;7069;52.528;13.316;2022-09-02T02:55:25;1.77;;;1.20;;
13989;SDS011;7069;52.528;13.316;2022-09-02T02:57:52;1.48;;;1.17;;
13989;SDS011;7069;52.528;13.316;2022-09-02T03:00:19;1.85;;;1.73;;
13989;SDS011;7069;52.528;13.316;2022-09-02T03:02:46;1.42;;;1.02;;
13989;SDS011;7069;52.528;13.316;2022-09-02T03:05:15;2.03;;;1.27;;
13989;SDS011;7069;52.528;13.316;2022-09-02T03:07:41;2.88;;;1.33;;
13989;SDS011;7069;52.528;13.316;2022-09-02T03:10:09;3.72;;;1.02;;
13989;SDS011;7069;52.528;13.316;2022-09-02T03:12:35;1.23;;;1.10;;
13989;SDS011;7069;52.528;13.316;2022-09-02T03:15:03;2.15;;;1.60;;
13989;SDS011;7069;52.528;13.316;2022-09-02T03:17:30;1.52;;;1.33;;
13989;SDS011;7069;52.528;13.316;2022-09-02T03:19:56;1.63;;;1.52;;
13989;SDS011;7069;52.528;13.316;2022-09-02T03:22:25;1.58;;;1.48;;
13989;SDS011;7069;52.528;13.316;2022-09-02T03:24:52;1.50;;;1.30;;
13989;SDS011;7069;52.528;13.316;2022-09-02T03:27:18;1.63;;;1.25;;
13989;SDS011;7069;52.528;13.316;2022-09-02T03:29:44;1.25;;;1.15;;
13989;SDS011;7069;52.528;13.316;2022-09-02T03:32:11;0.95;;;0.93;;
13989;SDS011;7069;52.528;13.316;2022-09-02T03:34:37;6.28;;;1.33;;
13989;SDS011;7069;52.528;13.316;2022-09-02T03:37:05;1.58;;;1.38;;
13989;SDS011;7069;52.528;13.316;2022-09-02T03:39:33;1.40;;;1.30;;
13989;SDS011;7069;52.528;13.316;2022-09-02T03:42:00;1.88;;;1.35;;
13989;SDS011;7069;52.528;13.316;2022-09-02T03:44:26;1.85;;;1.27;;
13989;SDS011;7069;52.528;13.316;2022-09-02T03:46:53;1.98;;;1.63;;
13989;SDS011;7069;52.528;13.316;2022-09-02T03:49:19;5.00;;;1.70;;
13989;SDS011;7069;52.528;13.316;2022-09-02T03:51:46;1.63;;;1.42;;
13989;SDS011;7069;52.528;13.316;2022-09-02T03:54:12;1.55;;;1.45;;
13989;SDS011;7069;52.528;13.316;2022-09-02T03:56:40;3.33;;;1.88;;
13989;SDS011;7069;52.528;13.316;2022-09-02T03:59:06;1.75;;;1.65;;
13989;SDS011;7069;52.528;13.316;2022-09-02T04:01:33;1.33;;;1.23;;
13989;SDS011;7069;52.528;13.316;2022-09-02T04:04:00;1.75;;;1.60;;
13989;SDS011;7069;52.528;13.316;2022-09-02T04:06:26;3.03;;;1.58;;
13989;SDS011;7069;52.528;13.316;2022-09-02T04:08:52;1.60;;;1.50;;
13989;SDS011;7069;52.528;13.316;2022-09-02T04:11:20;2.65;;;1.75;;
13989;SDS011;7069;52.528;13.316;2022-09-02T04:13:48;2.00;;;1.75;;
13989;SDS011;7069;52.528;13.316;2022-09-02T04:16:16;1.50;;;1.33;;
13989;SDS011;7069;52.528;13.316;2022-09-02T04:18:42;1.40;;;1.30;;
13989;SDS011;7069;52.528;13.316;2022-09-02T04:21:09;1.80;;;1.55;;
13989;SDS011;7069;52.528;13.316;2022-09-02T04:23:36;1.45;;;1.23;;
13989;SDS011;7069;52.528;13.316;2022-09-02T04:26:03;3.22;;;1.75;;
13989;SDS011;7069;52.528;13.316;2022-09-02T04:28:29;3.05;;;1.63;;
13989;SDS011;7069;52.528;13.316;2022-09-02T04:30:57;2.72;;;1.30;;
13989;SDS011;7069;52.528;13.316;2022-09-02T04:33:23;2.05;;;1.80;;
13989;SDS011;7069;52.528;13.316;2022-09-02T04:35:50;3.05;;;1.92;;
13989;SDS011;7069;52.528;13.316;2022-09-02T04:38:16;1.48;;;1.38;;
13989;SDS011;7069;52.528;13.316;2022-09-02T04:40:46;1.50;;;1.40;;
13989;SDS011;7069;52.528;13.316;2022-09-02T04:43:13;1.52;;;1.38;;
13989;SDS011;7069;52.528;13.316;2022-09-02T04:45:40;4.28;;;1.50;;
13989;SDS011;7069;52.528;13.316;2022-09-02T04:48:08;3.08;;;1.60;;
13989;SDS011;7069;52.528;13.316;2022-09-02T04:50:34;4.45;;;2.00;;
13989;SDS011;7069;52.528;13.316;2022-09-02T04:53:01;1.88;;;1.77;;
13989;SDS011;7069;52.528;13.316;2022-09-02T04:55:28;1.63;;;1.52;;
13989;SDS011;7069;52.528;13.316;2022-09-02T04:57:54;1.65;;;1.33;;
13989;SDS011;7069;52.528;13.316;2022-09-02T05:00:21;3.53;;;1.40;;
13989;SDS011;7069;52.528;13.316;2022-09-02T05:02:47;3.65;;;1.73;;
13989;SDS011;7069;52.528;13.316;2022-09-02T05:05:15;1.98;;;1.60;;
13989;SDS011;7069;52.528;13.316;2022-09-02T05:07:41;2.20;;;1.63;;
13989;SDS011;7069;52.528;13.316;2022-09-02T05:10:08;2.55;;;1.70;;
13989;SDS011;7069;52.528;13.316;2022-09-02T05:12:35;2.60;;;2.00;;
13989;SDS011;7069;52.528;13.316;2022-09-02T05:15:01;2.25;;;1.83;;
13989;SDS011;7069;52.528;13.316;2022-09-02T05:17:28;2.42;;;1.80;;
13989;SDS011;7069;52.528;13.316;2022-09-02T05:19:56;1.95;;;1.55;;
13989;SDS011;7069;52.528;13.316;2022-09-02T05:22:23;1.95;;;1.83;;
13989;SDS011;7069;52.528;13.316;2022-09-02T05:24:53;3.58;;;1.75;;
13989;SDS011;7069;52.528;13.316;2022-09-02T05:27:19;2.60;;;1.88;;
13989;SDS011;7069;52.528;13.316;2022-09-02T05:29:47;4.38;;;2.20;;
13989;SDS011;7069;52.528;13.316;2022-09-02T05:32:13;3.40;;;1.98;;
13989;SDS011;7069;52.528;13.316;2022-09-02T05:34:40;2.42;;;1.98;;
13989;SDS011;7069;52.528;13.316;2022-09-02T05:37:07;1.70;;;1.60;;
13989;SDS011;7069;52.528;13.316;2022-09-02T05:39:34;2.17;;;1.65;;
13989;SDS011;7069;52.528;13.316;2022-09-02T05:42:01;2.88;;;1.77;;
13989;SDS011;7069;52.528;13.316;2022-09-02T05:44:27;1.58;;;1.48;;
13989;SDS011;7069;52.528;13.316;2022-09-02T05:46:55;2.30;;;1.60;;
13989;SDS011;7069;52.528;13.316;2022-09-02T05:49:21;3.33;;;2.58;;
13989;SDS011;7069;52.528;13.316;2022-09-02T05:51:48;1.90;;;1.70;;
13989;SDS011;7069;52.528;13.316;2022-09-02T05:54:17;1.85;;;1.30;;
13989;SDS011;7069;52.528;13.316;2022-09-02T05:56:47;2.75;;;2.03;;
13989;SDS011;7069;52.528;13.316;2022-09-02T05:59:14;1.73;;;1.55;;
13989;SDS011;7069;52.528;13.316;2022-09-02T06:01:41;2.92;;;1.90;;
13989;SDS011;7069;52.528;13.316;2022-09-02T06:04:07;2.00;;;1.60;;
13989;SDS011;7069;52.528;13.316;2022-09-02T06:06:34;2.13;;;1.90;;
13989;SDS011;7069;52.528;13.316;2022-09-02T06:09:02;2.50;;;1.75;;
13989;SDS011;7069;52.528;13.316;2022-09-02T06:11:30;7.03;;;1.75;;
13989;SDS011;7069;52.528;13.316;2022-09-02T06:14:05;3.10;;;1.90;;
13989;SDS011;7069;52.528;13.316;2022-09-02T06:16:32;2.47;;;1.90;;
13989;SDS011;7069;52.528;13.316;2022-09-02T06:18:59;5.68;;;1.83;;
13989;SDS011;7069;52.528;13.316;2022-09-02T06:21:27;5.10;;;2.08;;
13989;SDS011;7069;52.528;13.316;2022-09-02T06:23:54;5.18;;;2.03;;
13989;SDS011;7069;52.528;13.316;2022-09-02T06:26:20;2.85;;;2.15;;
13989;SDS011;7069;52.528;13.316;2022-09-02T06:28:47;3.15;;;2.15;;
13989;SDS011;7069;52.528;13.316;2022-09-02T06:31:16;3.13;;;1.80;;
13989;SDS011;7069;52.528;13.316;2022-09-02T06:33:44;3.55;;;2.25;;
13989;SDS011;7069;52.528;13.316;2022-09-02T06:36:11;2.38;;;1.85;;
13989;SDS011;7069;52.528;13.316;2022-09-02T06:38:39;1.83;;;1.67;;
13989;SDS011;7069;52.528;13.316;2022-09-02T06:41:09;4.60;;;2.05;;
13989;SDS011;7069;52.528;13.316;2022-09-02T06:43:36;4.95;;;1.90;;
13989;SDS011;7069;52.528;13.316;2022-09-02T06:46:02;3.13;;;1.92;;
13989;SDS011;7069;52.528;13.316;2022-09-02T06:48:30;2.63;;;1.70;;
13989;SDS011;7069;52.528;13.316;2022-09-02T06:50:56;2.50;;;2.08;;
13989;SDS011;7069;52.528;13.316;2022-09-02T06:53:22;2.78;;;2.22;;
13989;SDS011;7069;52.528;13.316;2022-09-02T06:55:49;2.83;;;1.83;;
13989;SDS011;7069;52.528;13.316;2022-09-02T06:58:16;4.97;;;2.20;;
13989;SDS011;7069;52.528;13.316;2022-09-02T07:00:42;4.32;;;1.45;;
13989;SDS011;7069;52.528;13.316;2022-09-02T07:03:09;2.65;;;2.05;;
13989;SDS011;7069;52.528;13.316;2022-09-02T07:06:02;3.58;;;1.88;;
13989;SDS011;7069;52.528;13.316;2022-09-02T07:08:30;3.70;;;2.20;;
13989;SDS011;7069;52.528;13.316;2022-09-02T07:10:57;3.65;;;2.15;;
13989;SDS011;7069;52.528;13.316;2022-09-02T07:13:23;4.38;;;2.75;;
13989;SDS011;7069;52.528;13.316;2022-09-02T07:15:49;7.45;;;2.30;;
13989;SDS011;7069;52.528;13.316;2022-09-02T07:18:16;3.13;;;2.08;;
13989;SDS011;7069;52.528;13.316;2022-09-02T07:20:43;2.88;;;2.60;;
13989;SDS011;7069;52.528;13.316;2022-09-02T07:23:11;3.20;;;2.33;;
13989;SDS011;7069;52.528;13.316;2022-09-02T07:25:37;3.25;;;2.10;;
13989;SDS011;7069;52.528;13.316;2022-09-02T07:28:05;1.77;;;1.67;;
13989;SDS011;7069;52.528;13.316;2022-09-02T07:30:31;3.10;;;2.75;;
13989;SDS011;7069;52.528;13.316;2022-09-02T07:32:57;7.38;;;2.97;;
13989;SDS011;7069;52.528;13.316;2022-09-02T07:35:24;4.30;;;2.35;;
13989;SDS011;7069;52.528;13.316;2022-09-02T07:37:50;3.33;;;2.22;;
13989;SDS011;7069;52.528;13.316;2022-09-02T07:40:18;5.22;;;2.00;;
13989;SDS011;7069;52.528;13.316;2022-09-02T07:42:44;2.92;;;2.20;;
13989;SDS011;7069;52.528;13.316;2022-09-02T07:45:11;4.68;;;2.20;;
13989;SDS011;7069;52.528;13.316;2022-09-02T07:47:38;2.42;;;2.13;;
13989;SDS011;7069;52.528;13.316;2022-09-02T07:50:04;3.97;;;2.13;;
13989;SDS011;7069;52.528;13.316;2022-09-02T07:52:31;2.40;;;2.17;;
13989;SDS011;7069;52.528;13.316;2022-09-02T07:54:57;4.03;;;2.05;;
13989;SDS011;7069;52.528;13.316;2022-09-02T07:57:25;2.30;;;1.95;;
13989;SDS011;7069;52.528;13.316;2022-09-02T07:59:51;3.58;;;2.10;;
13989;SDS011;7069;52.528;13.316;2022-09-02T08:02:18;1.80;;;1.70;;
13989;SDS011;7069;52.528;13.316;2022-09-02T08:04:45;3.50;;;1.95;;
13989;SDS011;7069;52.528;13.316;2022-09-02T08:07:11;2.55;;;2.00;;
13989;SDS011;7069;52.528;13.316;2022-09-02T08:09:38;4.00;;;1.80;;
13989;SDS011;7069;52.528;13.316;2022-09-02T08:12:04;1.83;;;1.63;;
13989;SDS011;7069;52.528;13.316;2022-09-02T08:14:33;2.65;;;2.15;;
13989;SDS011;7069;52.528;13.316;2022-09-02T08:16:59;2.33;;;1.98;;
13989;SDS011;7069;52.528;13.316;2022-09-02T08:19:25;1.90;;;1.63;;
13989;SDS011;7069;52.528;13.316;2022-09-02T08:21:52;3.35;;;1.70;;
13989;SDS011;7069;52.528;13.316;2022-09-02T08:24:19;2.17;;;1.80;;
13989;SDS011;7069;52.528;13.316;2022-09-02T08:26:45;4.28;;;2.17;;
13989;SDS011;7069;52.528;13.316;2022-09-02T08:29:11;2.30;;;1.63;;
13989;SDS011;7069;52.528;13.316;2022-09-02T08:31:39;1.20;;;1.15;;
13989;SDS011;7069;52.528;13.316;2022-09-02T08:34:06;2.70;;;1.70;;
13989;SDS011;7069;52.528;13.316;2022-09-02T08:36:32;3.75;;;1.40;;
13989;SDS011;7069;52.528;13.316;2022-09-02T08:39:00;5.13;;;1.55;;
13989;SDS011;7069;52.528;13.316;2022-09-02T08:41:28;3.65;;;1.42;;
13989;SDS011;7069;52.528;13.316;2022-09-02T08:43:56;2.83;;;1.20;;
13989;SDS011;7069;52.528;13.316;2022-09-02T08:46:23;1.33;;;1.23;;
13989;SDS011;7069;52.528;13.316;2022-09-02T08:48:53;7.82;;;2.15;;
13989;SDS011;7069;52.528;13.316;2022-09-02T08:51:20;2.85;;;1.27;;
13989;SDS011;7069;52.528;13.316;2022-09-02T08:53:50;2.95;;;1.73;;
13989;SDS011;7069;52.528;13.316;2022-09-02T08:56:19;1.73;;;1.42;;
13989;SDS011;7069;52.528;13.316;2022-09-02T08:58:48;2.00;;;1.17;;
13989;SDS011;7069;52.528;13.316;2022-09-02T09:01:19;1.70;;;1.33;;
13989;SDS011;7069;52.528;13.316;2022-09-02T09:03:55;3.58;;;1.52;;
13989;SDS011;7069;52.528;13.316;2022-09-02T09:06:28;2.80;;;1.23;;
13989;SDS011;7069;52.528;13.316;2022-09-02T09:08:59;2.22;;;0.90;;
13989;SDS011;7069;52.528;13.316;2022-09-02T09:11:32;2.58;;;0.98;;
13989;SDS011;7069;52.528;13.316;2022-09-02T09:14:01;1.17;;;0.80;;
13989;SDS011;7069;52.528;13.316;2022-09-02T09:16:34;1.20;;;1.10;;
13989;SDS011;7069;52.528;13.316;2022-09-02T09:19:05;1.40;;;1.10;;
13989;SDS011;7069;52.528;13.316;2022-09-02T09:21:33;1.08;;;1.05;;
13989;SDS011;7069;52.528;13.316;2022-09-02T09:24:00;0.98;;;0.90;;
13989;SDS011;7069;52.528;13.316;2022-09-02T09:26:28;3.05;;;1.15;;
13989;SDS011;7069;52.528;13.316;2022-09-02T09:28:57;1.15;;;0.80;;
13989;SDS011;7069;52.528;13.316;2022-09-02T09:31:26;1.10;;;1.00;;
13989;SDS011;7069;52.528;13.316;2022-09-02T09:33:56;1.00;;;1.00;;
13989;SDS011;7069;52.528;13.316;2022-09-02T09:39:15;1.35;;;1.02;;
13989;SDS011;7069;52.528;13.316;2022-09-02T09:41:41;1.80;;;1.00;;
13989;SDS011;7069;52.528;13.316;2022-09-02T09:44:08;5.15;;;1.20;;
13989;SDS011;7069;52.528;13.316;2022-09-02T09:46:34;2.35;;;1.20;;
13989;SDS011;7069;52.528;13.316;2022-09-02T09:49:01;1.75;;;0.95;;
13989;SDS011;7069;52.528;13.316;2022-09-02T09:51:27;2.53;;;1.25;;
13989;SDS011;7069;52.528;13.316;2022-09-02T09:53:54;2.40;;;1.30;;
13989;SDS011;7069;52.528;13.316;2022-09-02T09:56:40;2.22;;;1.35;;
13989;SDS011;7069;52.528;13.316;2022-09-02T09:59:08;1.33;;;1.10;;
13989;SDS011;7069;52.528;13.316;2022-09-02T10:01:34;3.42;;;1.55;;
13989;SDS011;7069;52.528;13.316;2022-09-02T10:04:02;5.22;;;1.70;;
13989;SDS011;7069;52.528;13.316;2022-09-02T10:06:36;0.95;;;0.80;;
13989;SDS011;7069;52.528;13.316;2022-09-02T10:09:04;1.15;;;0.77;;
13989;SDS011;7069;52.528;13.316;2022-09-02T10:11:32;1.35;;;0.70;;
13989;SDS011;7069;52.528;13.316;2022-09-02T10:14:00;2.45;;;0.70;;
13989;SDS011;7069;52.528;13.316;2022-09-02T10:16:31;1.02;;;1.00;;
13989;SDS011;7069;52.528;13.316;2022-09-02T10:19:01;2.38;;;1.00;;
13989;SDS011;7069;52.528;13.316;2022-09-02T10:21:34;0.90;;;0.90;;
13989;SDS011;7069;52.528;13.316;2022-09-02T10:24:03;2.72;;;1.10;;
13989;SDS011;7069;52.528;13.316;2022-09-02T10:26:35;2.35;;;1.20;;
13989;SDS011;7069;52.528;13.316;2022-09-02T10:29:08;2.08;;;1.13;;
13989;SDS011;7069;52.528;13.316;2022-09-02T10:31:40;1.40;;;0.77;;
13989;SDS011;7069;52.528;13.316;2022-09-02T10:34:14;1.60;;;1.00;;
13989;SDS011;7069;52.528;13.316;2022-09-02T10:36:45;1.83;;;1.02;;
13989;SDS011;7069;52.528;13.316;2022-09-02T10:39:17;1.20;;;1.00;;
13989;SDS011;7069;52.528;13.316;2022-09-02T10:41:45;1.83;;;0.90;;
13989;SDS011;7069;52.528;13.316;2022-09-02T10:44:19;0.70;;;0.70;;
13989;SDS011;7069;52.528;13.316;2022-09-02T10:46:50;0.68;;;0.68;;
13989;SDS011;7069;52.528;13.316;2022-09-02T10:49:20;1.35;;;0.90;;
13989;SDS011;7069;52.528;13.316;2022-09-02T10:51:50;1.55;;;1.15;;
13989;SDS011;7069;52.528;13.316;2022-09-02T10:54:22;3.17;;;1.10;;
13989;SDS011;7069;52.528;13.316;2022-09-02T10:56:54;2.25;;;0.80;;
13989;SDS011;7069;52.528;13.316;2022-09-02T10:59:25;1.55;;;1.08;;
13989;SDS011;7069;52.528;13.316;2022-09-02T11:01:55;1.25;;;1.05;;
13989;SDS011;7069;52.528;13.316;2022-09-02T11:04:23;1.88;;;1.00;;
13989;SDS011;7069;52.528;13.316;2022-09-02T11:06:53;1.25;;;1.05;;
13989;SDS011;7069;52.528;13.316;2022-09-02T11:09:24;0.63;;;0.63;;
13989;SDS011;7069;52.528;13.316;2022-09-02T11:11:52;0.90;;;0.90;;
13989;SDS011;7069;52.528;13.316;2022-09-02T11:14:22;0.60;;;0.57;;
13989;SDS011;7069;52.528;13.316;2022-09-02T11:16:51;27.90;;;1.50;;
13989;SDS011;7069;52.528;13.316;2022-09-02T11:19:24;1.58;;;1.15;;
13989;SDS011;7069;52.528;13.316;2022-09-02T11:21:54;1.55;;;1.13;;
13989;SDS011;7069;52.528;13.316;2022-09-02T11:24:24;2.33;;;1.27;;
13989;SDS011;7069;52.528;13.316;2022-09-02T11:26:53;1.63;;;0.90;;
13989;SDS011;7069;52.528;13.316;2022-09-02T11:29:21;1.45;;;0.80;;
13989;SDS011;7069;52.528;13.316;2022-09-02T11:31:54;0.90;;;0.80;;
13989;SDS011;7069;52.528;13.316;2022-09-02T11:34:25;1.13;;;0.80;;
13989;SDS011;7069;52.528;13.316;2022-09-02T11:37:00;1.00;;;1.00;;
13989;SDS011;7069;52.528;13.316;2022-09-02T11:39:29;1.02;;;0.93;;
13989;SDS011;7069;52.528;13.316;2022-09-02T11:42:00;1.85;;;1.00;;
13989;SDS011;7069;52.528;13.316;2022-09-02T11:47:37;1.20;;;1.10;;
13989;SDS011;7069;52.528;13.316;2022-09-02T11:50:23;1.75;;;0.95;;
13989;SDS011;7069;52.528;13.316;2022-09-02T11:52:54;1.20;;;1.10;;
13989;SDS011;7069;52.528;13.316;2022-09-02T11:55:21;1.95;;;1.10;;
13989;SDS011;7069;52.528;13.316;2022-09-02T11:57:50;1.30;;;1.08;;
13989;SDS011;7069;52.528;13.316;2022-09-02T12:00:25;1.30;;;1.17;;
13989;SDS011;7069;52.528;13.316;2022-09-02T12:02:56;0.98;;;0.88;;
13989;SDS011;7069;52.528;13.316;2022-09-02T12:05:43;1.25;;;1.05;;
13989;SDS011;7069;52.528;13.316;2022-09-02T12:08:10;1.13;;;1.00;;
13989;SDS011;7069;52.528;13.316;2022-09-02T12:10:56;2.30;;;1.10;;
13989;SDS011;7069;52.528;13.316;2022-09-02T12:13:30;1.08;;;0.73;;
13989;SDS011;7069;52.528;13.316;2022-09-02T12:19:15;2.05;;;0.90;;
13989;SDS011;7069;52.528;13.316;2022-09-02T12:21:36;1.85;;;1.17;;
13989;SDS011;7069;52.528;13.316;2022-09-02T12:24:25;1.10;;;1.00;;
13989;SDS011;7069;52.528;13.316;2022-09-02T12:27:02;3.13;;;1.10;;
13989;SDS011;7069;52.528;13.316;2022-09-02T12:29:30;4.32;;;0.80;;
13989;SDS011;7069;52.528;13.316;2022-09-02T12:31:57;2.40;;;0.98;;
13989;SDS011;7069;52.528;13.316;2022-09-02T12:37:14;2.33;;;1.10;;
13989;SDS011;7069;52.528;13.316;2022-09-02T12:40:00;1.20;;;1.10;;
13989;SDS011;7069;52.528;13.316;2022-09-02T12:42:29;1.00;;;0.90;;
13989;SDS011;7069;52.528;13.316;2022-09-02T12:45:02;1.05;;;0.90;;
13989;SDS011;7069;52.528;13.316;2022-09-02T12:47:37;3.15;;;1.17;;
13989;SDS011;7069;52.528;13.316;2022-09-02T12:50:06;0.75;;;0.75;;
13989;SDS011;7069;52.528;13.316;2022-09-02T12:52:40;1.00;;;0.93;;
13989;SDS011;7069;52.528;13.316;2022-09-02T12:55:08;1.85;;;0.93;;
13989;SDS011;7069;52.528;13.316;2022-09-02T12:57:36;0.95;;;0.90;;
13989;SDS011;7069;52.528;13.316;2022-09-02T13:00:03;1.02;;;0.88;;
13989;SDS011;7069;52.528;13.316;2022-09-02T13:02:35;2.25;;;0.90;;
13989;SDS011;7069;52.528;13.316;2022-09-02T13:05:08;1.42;;;0.70;;
13989;SDS011;7069;52.528;13.316;2022-09-02T13:07:59;1.35;;;0.93;;
13989;SDS011;7069;52.528;13.316;2022-09-02T13:10:28;2.42;;;1.02;;
13989;SDS011;7069;52.528;13.316;2022-09-02T13:13:02;1.15;;;1.05;;
13989;SDS011;7069;52.528;13.316;2022-09-02T13:15:34;1.80;;;1.10;;
13989;SDS011;7069;52.528;13.316;2022-09-02T13:18:13;0.80;;;0.80;;
13989;SDS011;7069;52.528;13.316;2022-09-02T13:21:03;1.60;;;1.35;;
13989;SDS011;7069;52.528;13.316;2022-09-02T13:26:42;1.00;;;1.00;;
13989;SDS011;7069;52.528;13.316;2022-09-02T13:29:29;2.03;;;1.15;;
13989;SDS011;7069;52.528;13.316;2022-09-02T13:32:00;1.48;;;1.33;;
13989;SDS011;7069;52.528;13.316;2022-09-02T13:34:29;1.80;;;1.05;;
13989;SDS011;7069;52.528;13.316;2022-09-02T13:36:56;1.35;;;1.25;;
13989;SDS011;7069;52.528;13.316;2022-09-02T13:39:23;2.53;;;1.00;;
13989;SDS011;7069;52.528;13.316;2022-09-02T13:41:51;1.13;;;1.02;;
13989;SDS011;7069;52.528;13.316;2022-09-02T13:44:21;1.27;;;1.17;;
13989;SDS011;7069;52.528;13.316;2022-09-02T13:46:48;5.22;;;1.83;;
13989;SDS011;7069;52.528;13.316;2022-09-02T13:49:19;0.95;;;0.95;;
13989;SDS011;7069;52.528;13.316;2022-09-02T13:51:46;1.08;;;1.00;;
13989;SDS011;7069;52.528;13.316;2022-09-02T13:54:12;1.67;;;1.20;;
13989;SDS011;7069;52.528;13.316;2022-09-02T13:56:39;1.58;;;1.35;;
13989;SDS011;7069;52.528;13.316;2022-09-02T13:59:07;1.23;;;1.13;;
13989;SDS011;7069;52.528;13.316;2022-09-02T14:01:35;1.20;;;1.10;;
13989;SDS011;7069;52.528;13.316;2022-09-02T14:04:04;1.80;;;1.42;;
13989;SDS011;7069;52.528;13.316;2022-09-02T14:06:32;2.00;;;1.33;;
13989;SDS011;7069;52.528;13.316;2022-09-02T14:09:01;1.00;;;1.00;;
13989;SDS011;7069;52.528;13.316;2022-09-02T14:11:30;1.83;;;1.17;;
13989;SDS011;7069;52.528;13.316;2022-09-02T14:13:58;1.27;;;1.10;;
13989;SDS011;7069;52.528;13.316;2022-09-02T14:16:27;2.83;;;1.52;;
13989;SDS011;7069;52.528;13.316;2022-09-02T14:19:05;2.33;;;1.27;;
13989;SDS011;7069;52.528;13.316;2022-09-02T14:21:31;1.23;;;1.10;;
13989;SDS011;7069;52.528;13.316;2022-09-02T14:23:58;1.17;;;1.08;;
13989;SDS011;7069;52.528;13.316;2022-09-02T14:26:26;1.55;;;1.27;;
13989;SDS011;7069;52.528;13.316;2022-09-02T14:28:55;2.13;;;1.58;;
13989;SDS011;7069;52.528;13.316;2022-09-02T14:31:22;1.30;;;1.20;;
13989;SDS011;7069;52.528;13.316;2022-09-02T14:33:50;1.30;;;1.20;;
13989;SDS011;7069;52.528;13.316;2022-09-02T14:36:29;2.55;;;1.65;;
13989;SDS011;7069;52.528;13.316;2022-09-02T14:39:06;1.58;;;1.17;;
13989;SDS011;7069;52.528;13.316;2022-09-02T14:41:34;1.30;;;1.13;;
13989;SDS011;7069;52.528;13.316;2022-09-02T14:44:07;1.45;;;1.35;;
13989;SDS011;7069;52.528;13.316;2022-09-02T14:46:35;1.88;;;1.20;;
13989;SDS011;7069;52.528;13.316;2022-09-02T14:49:04;0.95;;;0.80;;
13989;SDS011;7069;52.528;13.316;2022-09-02T14:51:35;2.72;;;1.20;;
13989;SDS011;7069;52.528;13.316;2022-09-02T14:54:02;1.20;;;1.10;;
13989;SDS011;7069;52.528;13.316;2022-09-02T14:56:42;1.27;;;0.90;;
13989;SDS011;7069;52.528;13.316;2022-09-02T14:59:08;0.82;;;0.82;;
13989;SDS011;7069;52.528;13.316;2022-09-02T15:01:36;0.90;;;0.90;;
13989;SDS011;7069;52.528;13.316;2022-09-02T15:04:06;1.60;;;1.20;;
13989;SDS011;7069;52.528;13.316;2022-09-02T15:06:32;1.30;;;0.95;;
13989;SDS011;7069;52.528;13.316;2022-09-02T15:08:58;1.23;;;1.00;;
13989;SDS011;7069;52.528;13.316;2022-09-02T15:11:25;1.42;;;1.25;;